Couch, Missouri
Current Conditions -  °F | °C
As of 4:59 AM on Friday 19 Dec 2014 (Local Time) from KUNO Reporting Station
Haze Haze  
Wind Chill: 29°   Ceiling: 200
Heat Index: 35°   Visibility: 0.75mi
Dew Point: 33°   Wind: 7mph
Humidity: 92%   Direction: 60°ENE
Pressure: 30.2"   Gusts: NA
Location:  36.61°N, 91.38°W
Report Text: KUNO 191059Z AUTO 06006KT 3/4SM BR VV002 02/01 A3020 RMK AO2 T00170006
Loading
Personal Weather Stations






























Interactive Weather Map New forecast layout! Learn more

10-Day Weather Forecast

Advertisements
Track Severe Weather on mobile